createdAt,value
2023-03-01T00:01:32.118Z,1.75
2023-03-01T00:04:01.167Z,1.76
2023-03-01T00:06:29.625Z,1.77
2023-03-01T00:08:57.754Z,1.74
2023-03-01T00:11:28.442Z,1.73
2023-03-01T00:13:58.718Z,1.69
2023-03-01T00:16:28.839Z,1.73
2023-03-01T00:18:57.189Z,1.71
2023-03-01T00:21:26.001Z,1.70
2023-03-01T00:23:54.168Z,1.65
2023-03-01T00:26:23.565Z,1.66
2023-03-01T00:28:53.137Z,1.64
2023-03-01T00:31:23.140Z,1.62
2023-03-01T00:33:53.920Z,1.57
2023-03-01T00:36:21.626Z,1.53
2023-03-01T00:38:49.226Z,1.48
2023-03-01T00:41:18.758Z,1.41
2023-03-01T00:43:47.078Z,1.36
2023-03-01T00:46:18.561Z,1.32
2023-03-01T00:48:46.447Z,1.26
2023-03-01T00:51:16.048Z,1.20
2023-03-01T00:53:44.497Z,1.17
2023-03-01T00:56:14.488Z,1.10
2023-03-01T00:58:42.404Z,1.08
2023-03-01T01:01:18.403Z,1.05
2023-03-01T01:03:49.539Z,1.02
2023-03-01T01:06:19.042Z,1.02
2023-03-01T01:08:46.843Z,1.00
2023-03-01T01:11:14.924Z,0.99
2023-03-01T01:13:43.351Z,0.98
2023-03-01T01:16:10.989Z,0.96
2023-03-01T01:18:38.661Z,0.95
2023-03-01T01:21:09.626Z,0.96
2023-03-01T01:23:38.621Z,0.96
2023-03-01T01:26:08.230Z,0.93
2023-03-01T01:28:36.308Z,0.93
2023-03-01T01:31:03.999Z,0.92
2023-03-01T01:33:32.049Z,0.88
2023-03-01T01:35:59.656Z,0.91
2023-03-01T01:38:28.647Z,0.89
2023-03-01T01:40:56.366Z,0.87
2023-03-01T01:43:26.847Z,0.85
2023-03-01T01:45:58.529Z,0.88
2023-03-01T01:48:41.191Z,0.86
2023-03-01T01:51:13.608Z,0.86
2023-03-01T01:53:45.402Z,0.87
2023-03-01T01:56:15.179Z,0.88
2023-03-01T01:58:44.701Z,0.90
2023-03-01T02:01:12.789Z,0.90
2023-03-01T02:03:44.788Z,0.91
2023-03-01T02:06:19.121Z,0.92
2023-03-01T02:08:50.737Z,0.96
2023-03-01T02:11:20.421Z,0.97
2023-03-01T02:13:50.090Z,1.00
2023-03-01T02:16:18.695Z,1.00
2023-03-01T02:18:47.413Z,1.00
2023-03-01T02:21:34.142Z,1.02
2023-03-01T02:24:19.272Z,1.06
2023-03-01T02:26:53.467Z,1.09
2023-03-01T02:29:23.039Z,1.05
2023-03-01T02:31:53.264Z,1.04
2023-03-01T02:34:26.069Z,1.02
2023-03-01T02:36:58.532Z,1.00
2023-03-01T02:39:28.629Z,1.00
2023-03-01T02:41:58.373Z,1.00
2023-03-01T02:44:27.721Z,0.96
2023-03-01T02:46:59.592Z,0.94
2023-03-01T02:49:28.972Z,0.93
2023-03-01T02:52:23.970Z,0.91
2023-03-01T02:54:58.235Z,0.84
2023-03-01T02:57:28.315Z,0.84
2023-03-01T02:59:59.437Z,0.80
2023-03-01T03:02:37.664Z,0.76
2023-03-01T03:05:09.331Z,0.75
2023-03-01T03:07:38.748Z,0.71
2023-03-01T03:10:09.949Z,0.68
2023-03-01T03:12:37.530Z,0.70
2023-03-01T03:15:09.796Z,0.68
2023-03-01T03:17:38.373Z,0.67
2023-03-01T03:20:11.798Z,0.67
2023-03-01T03:22:40.361Z,0.61
2023-03-01T03:25:11.310Z,0.59
2023-03-01T03:27:39.512Z,0.57
2023-03-01T03:30:13.228Z,0.55
2023-03-01T03:32:40.938Z,0.55
2023-03-01T03:35:10.928Z,0.57
2023-03-01T03:37:56.441Z,0.56
2023-03-01T03:40:24.036Z,0.57
2023-03-01T03:42:51.687Z,0.55
2023-03-01T03:45:21.156Z,0.51
2023-03-01T03:47:48.751Z,0.53
2023-03-01T03:50:18.155Z,0.54
2023-03-01T03:52:45.946Z,0.57
2023-03-01T03:55:14.814Z,0.58
2023-03-01T03:57:43.660Z,0.61
2023-03-01T04:00:13.997Z,0.59
2023-03-01T04:02:44.252Z,0.54
2023-03-01T04:05:13.608Z,0.49
2023-03-01T04:07:41.216Z,0.46
2023-03-01T04:10:15.779Z,0.46
2023-03-01T04:12:44.159Z,0.37
2023-03-01T04:15:16.743Z,0.35
2023-03-01T04:17:47.476Z,0.35
2023-03-01T04:20:18.250Z,0.27
2023-03-01T04:22:47.868Z,0.26
2023-03-01T04:25:16.326Z,0.22
2023-03-01T04:27:43.916Z,0.17
2023-03-01T04:30:12.580Z,0.16
2023-03-01T04:32:40.197Z,0.15
2023-03-01T04:35:10.346Z,0.15
2023-03-01T04:37:38.001Z,0.14
2023-03-01T04:40:13.923Z,0.13
2023-03-01T04:42:41.666Z,0.18
2023-03-01T04:45:14.034Z,0.15
2023-03-01T04:47:43.676Z,0.17
2023-03-01T04:50:15.590Z,0.18
2023-03-01T04:52:43.746Z,0.18
2023-03-01T04:55:12.257Z,0.21
2023-03-01T04:57:40.261Z,0.14
2023-03-01T05:00:20.930Z,0.11
2023-03-01T05:02:55.124Z,0.13
2023-03-01T05:05:27.833Z,0.11
2023-03-01T05:07:56.927Z,0.03
2023-03-01T05:10:25.503Z,0.06
2023-03-01T05:12:54.279Z,0.04
2023-03-01T05:15:22.858Z,0.00
2023-03-01T05:17:50.736Z,0.00
2023-03-01T05:20:18.447Z,-0.01
2023-03-01T05:22:47.360Z,-0.02
2023-03-01T05:25:15.706Z,-0.10
2023-03-01T05:27:43.309Z,-0.13
2023-03-01T05:30:16.088Z,-0.10
2023-03-01T05:32:45.571Z,-0.09
2023-03-01T05:35:15.126Z,-0.09
2023-03-01T05:37:44.125Z,-0.05
2023-03-01T05:40:17.396Z,-0.12
2023-03-01T05:42:45.881Z,-0.09
2023-03-01T05:45:15.014Z,-0.08
2023-03-01T05:47:44.662Z,-0.08
2023-03-01T05:50:14.605Z,-0.05
2023-03-01T05:52:42.525Z,-0.07
2023-03-01T05:55:11.143Z,-0.09
2023-03-01T05:57:40.089Z,-0.07
2023-03-01T06:00:09.141Z,-0.11
2023-03-01T06:02:36.978Z,-0.17
2023-03-01T06:05:04.918Z,-0.18
2023-03-01T06:07:33.336Z,-0.24
2023-03-01T06:10:01.094Z,-0.27
2023-03-01T06:12:32.485Z,-0.27
2023-03-01T06:15:01.515Z,-0.30
2023-03-01T06:17:31.486Z,-0.38
2023-03-01T06:19:59.153Z,-0.40
2023-03-01T06:22:26.782Z,-0.40
2023-03-01T06:24:54.421Z,-0.42
2023-03-01T06:27:22.033Z,-0.41
2023-03-01T06:29:49.874Z,-0.40
2023-03-01T06:32:19.478Z,-0.40
2023-03-01T06:34:47.699Z,-0.37
2023-03-01T06:37:15.415Z,-0.37
2023-03-01T06:39:43.012Z,-0.36
2023-03-01T06:42:11.884Z,-0.31
2023-03-01T06:44:39.888Z,-0.30
2023-03-01T06:47:07.561Z,-0.24
2023-03-01T06:49:36.503Z,-0.20
2023-03-01T06:52:04.561Z,-0.16
2023-03-01T06:54:32.236Z,-0.12
2023-03-01T06:56:59.950Z,-0.06
2023-03-01T06:59:27.706Z,0.04
2023-03-01T07:01:55.305Z,0.09
2023-03-01T07:04:22.859Z,0.08
2023-03-01T07:06:56.052Z,0.13
2023-03-01T07:09:24.167Z,0.21
2023-03-01T07:11:52.054Z,0.32
2023-03-01T07:14:20.710Z,0.40
2023-03-01T07:16:48.784Z,0.47
2023-03-01T07:19:16.374Z,0.53
2023-03-01T07:21:44.032Z,0.59
2023-03-01T07:24:13.371Z,0.64
2023-03-01T07:26:41.033Z,0.61
2023-03-01T07:29:09.864Z,0.59
2023-03-01T07:31:38.233Z,0.39
2023-03-01T07:34:05.862Z,0.13
2023-03-01T07:36:33.816Z,0.05
2023-03-01T07:39:03.303Z,0.00
2023-03-01T07:41:32.653Z,0.02
2023-03-01T07:44:00.674Z,0.00
2023-03-01T07:46:28.387Z,0.14
2023-03-01T07:48:56.072Z,0.38
2023-03-01T07:51:23.656Z,0.33
2023-03-01T07:53:51.341Z,0.07
2023-03-01T07:56:19.719Z,0.11
2023-03-01T07:58:50.654Z,0.15
2023-03-01T08:01:20.351Z,0.16
2023-03-01T08:03:48.288Z,0.25
2023-03-01T08:06:18.203Z,0.48
2023-03-01T08:08:46.732Z,0.55
2023-03-01T08:11:16.191Z,0.59
2023-03-01T08:13:44.826Z,0.79
2023-03-01T08:16:15.811Z,0.92
2023-03-01T08:18:44.369Z,0.99
2023-03-01T08:21:13.630Z,1.12
2023-03-01T08:23:41.875Z,1.08
2023-03-01T08:26:12.906Z,1.00
2023-03-01T08:28:41.168Z,1.06
2023-03-01T08:31:18.158Z,1.15
2023-03-01T08:33:51.350Z,1.32
2023-03-01T08:36:19.847Z,1.31
2023-03-01T08:38:47.819Z,1.51
2023-03-01T08:41:15.474Z,1.47
2023-03-01T08:43:43.152Z,1.30
2023-03-01T08:46:11.377Z,1.41
2023-03-01T08:48:41.247Z,1.55
2023-03-01T08:51:10.482Z,1.39
2023-03-01T08:53:38.059Z,1.25
2023-03-01T08:56:06.344Z,1.14
2023-03-01T08:58:34.335Z,1.30
2023-03-01T09:01:02.207Z,1.23
2023-03-01T09:03:30.663Z,1.17
2023-03-01T09:06:05.118Z,1.40
2023-03-01T09:08:36.021Z,1.62
2023-03-01T09:11:04.351Z,1.58
2023-03-01T09:13:32.978Z,1.54
2023-03-01T09:16:01.194Z,1.59
2023-03-01T09:18:29.260Z,1.76
2023-03-01T09:21:08.317Z,1.97
2023-03-01T09:23:37.259Z,1.88
2023-03-01T09:26:05.145Z,1.92
2023-03-01T09:28:32.870Z,1.95
2023-03-01T09:31:01.307Z,2.10
2023-03-01T09:33:29.863Z,2.01
2023-03-01T09:36:01.159Z,2.01
2023-03-01T09:38:30.473Z,2.09
2023-03-01T09:40:58.219Z,2.32
2023-03-01T09:43:32.129Z,2.59
2023-03-01T09:46:05.384Z,2.77
2023-03-01T09:48:39.574Z,2.93
2023-03-01T09:51:14.853Z,3.01
2023-03-01T09:53:43.884Z,2.69
2023-03-01T09:56:21.875Z,2.55
2023-03-01T09:58:55.171Z,2.52
2023-03-01T10:01:35.553Z,2.48
2023-03-01T10:04:15.190Z,2.52
2023-03-01T10:06:47.571Z,2.41
2023-03-01T10:09:18.944Z,2.37
2023-03-01T10:11:50.758Z,2.52
2023-03-01T10:14:34.890Z,2.73
2023-03-01T10:17:05.577Z,3.00
2023-03-01T10:19:35.824Z,3.11
2023-03-01T10:22:11.375Z,3.05
2023-03-01T10:24:40.402Z,3.11
2023-03-01T10:27:13.589Z,3.16
2023-03-01T10:29:48.080Z,3.44
2023-03-01T10:32:16.216Z,3.59
2023-03-01T10:34:44.073Z,3.59
2023-03-01T10:37:14.759Z,3.74
2023-03-01T10:39:59.518Z,3.56
2023-03-01T10:42:33.082Z,3.76
2023-03-01T10:45:16.091Z,3.95
2023-03-01T10:47:43.733Z,3.88
2023-03-01T10:50:21.615Z,3.84
2023-03-01T10:52:59.742Z,4.05
2023-03-01T10:55:35.620Z,4.27
2023-03-01T10:58:20.080Z,4.16
2023-03-01T11:00:49.849Z,3.99
2023-03-01T11:03:23.014Z,4.04
2023-03-01T11:06:00.216Z,4.22
2023-03-01T11:08:35.023Z,4.06
2023-03-01T11:11:15.085Z,4.26
2023-03-01T11:13:52.873Z,4.43
2023-03-01T11:16:30.365Z,4.62
2023-03-01T11:18:59.777Z,4.91
2023-03-01T11:21:31.171Z,5.10
2023-03-01T11:24:02.086Z,5.06
2023-03-01T11:26:37.943Z,5.06
2023-03-01T11:29:09.447Z,5.03
2023-03-01T11:31:40.443Z,5.29
2023-03-01T11:34:15.913Z,5.00
2023-03-01T11:36:50.036Z,5.02
2023-03-01T11:39:27.975Z,5.05
2023-03-01T11:42:18.509Z,5.10
2023-03-01T11:44:50.045Z,5.07
2023-03-01T11:47:30.017Z,5.02
2023-03-01T11:50:16.937Z,5.31
2023-03-01T11:52:56.925Z,5.33
2023-03-01T11:55:38.117Z,5.43
2023-03-01T11:58:36.548Z,5.54
2023-03-01T12:01:22.164Z,4.96
2023-03-01T12:04:26.518Z,4.96
2023-03-01T12:06:59.414Z,4.81
2023-03-01T12:09:47.830Z,4.41
2023-03-01T12:12:39.684Z,4.26
2023-03-01T12:15:44.611Z,4.15
2023-03-01T12:18:40.487Z,4.20
2023-03-01T12:21:19.321Z,4.22
2023-03-01T12:24:12.226Z,4.02
2023-03-01T12:26:55.448Z,3.96
2023-03-01T12:29:29.382Z,3.91
2023-03-01T12:32:14.464Z,3.87
2023-03-01T12:34:57.841Z,4.19
2023-03-01T12:37:38.730Z,4.39
2023-03-01T12:40:37.805Z,4.58
2023-03-01T12:43:19.760Z,4.53
2023-03-01T12:46:08.117Z,4.51
2023-03-01T12:48:44.891Z,4.46
2023-03-01T12:51:16.763Z,4.37
2023-03-01T12:53:48.980Z,4.51
2023-03-01T12:56:19.976Z,4.63
2023-03-01T12:58:58.778Z,4.72
2023-03-01T13:01:38.666Z,4.70
2023-03-01T13:04:29.254Z,4.66
2023-03-01T13:07:06.183Z,4.85
2023-03-01T13:09:42.656Z,4.86
2023-03-01T13:12:43.566Z,4.94
2023-03-01T13:15:30.079Z,4.92
2023-03-01T13:17:59.297Z,4.84
2023-03-01T13:20:33.630Z,4.73
2023-03-01T13:23:08.419Z,5.01
2023-03-01T13:25:42.534Z,5.09
2023-03-01T13:28:41.602Z,5.20
2023-03-01T13:31:11.041Z,5.12
2023-03-01T13:33:47.915Z,4.98
2023-03-01T13:36:50.732Z,5.11
2023-03-01T13:39:34.387Z,5.04
2023-03-01T13:42:02.447Z,5.12
2023-03-01T13:44:34.445Z,5.06
2023-03-01T13:47:10.475Z,5.11
2023-03-01T13:49:46.655Z,5.10
2023-03-01T13:52:36.652Z,4.99
2023-03-01T13:55:08.045Z,5.05
2023-03-01T13:57:40.018Z,5.08
2023-03-01T14:00:09.209Z,5.12
2023-03-01T14:02:37.689Z,5.17
2023-03-01T14:05:05.906Z,5.03
2023-03-01T14:07:37.649Z,5.16
2023-03-01T14:10:08.660Z,5.13
2023-03-01T14:12:47.576Z,5.20
2023-03-01T14:15:22.034Z,5.24
2023-03-01T14:17:57.980Z,5.26
2023-03-01T14:20:27.688Z,5.17
2023-03-01T14:22:59.191Z,4.90
2023-03-01T14:25:32.820Z,4.92
2023-03-01T14:28:06.149Z,4.92
2023-03-01T14:30:38.642Z,4.86
2023-03-01T14:33:09.093Z,4.83
2023-03-01T14:35:38.436Z,4.89
2023-03-01T14:38:07.424Z,4.91
2023-03-01T14:40:37.155Z,4.87
2023-03-01T14:43:12.661Z,4.62
2023-03-01T14:45:40.975Z,4.46
2023-03-01T14:48:09.752Z,4.23
2023-03-01T14:50:42.691Z,4.22
2023-03-01T14:53:19.908Z,4.27
2023-03-01T14:55:50.622Z,4.38
2023-03-01T14:58:22.548Z,4.51
2023-03-01T15:00:54.265Z,4.60
2023-03-01T15:03:27.880Z,4.52
2023-03-01T15:05:55.914Z,4.57
2023-03-01T15:08:27.061Z,4.64
2023-03-01T15:11:01.047Z,4.68
2023-03-01T15:13:32.837Z,4.50
2023-03-01T15:16:11.508Z,4.47
2023-03-01T15:18:45.146Z,4.48
2023-03-01T15:21:18.994Z,4.32
2023-03-01T15:23:54.438Z,4.37
2023-03-01T15:26:30.770Z,4.39
2023-03-01T15:29:01.094Z,4.27
2023-03-01T15:31:31.632Z,4.18
2023-03-01T15:34:23.154Z,3.99
2023-03-01T15:36:51.678Z,3.87
2023-03-01T15:39:44.183Z,3.86
2023-03-01T15:42:14.398Z,3.94
2023-03-01T15:44:45.840Z,3.96
2023-03-01T15:47:29.698Z,3.99
2023-03-01T15:49:58.901Z,3.94
2023-03-01T15:52:30.808Z,3.90
2023-03-01T15:55:02.157Z,3.90
2023-03-01T15:57:30.184Z,3.79
2023-03-01T15:59:57.847Z,3.66
2023-03-01T16:02:26.203Z,3.54
2023-03-01T16:04:54.666Z,3.39
2023-03-01T16:07:22.349Z,3.44
2023-03-01T16:09:50.056Z,3.29
2023-03-01T16:12:21.363Z,3.39
2023-03-01T16:14:49.810Z,3.47
2023-03-01T16:17:17.506Z,3.57
2023-03-01T16:19:45.131Z,3.57
2023-03-01T16:22:12.918Z,3.36
2023-03-01T16:24:41.828Z,3.18
2023-03-01T16:27:09.430Z,3.14
2023-03-01T16:29:38.739Z,3.18
2023-03-01T16:32:07.011Z,3.22
2023-03-01T16:34:34.825Z,3.07
2023-03-01T16:37:02.392Z,3.02
2023-03-01T16:39:30.061Z,2.98
2023-03-01T16:41:57.843Z,2.83
2023-03-01T16:44:25.548Z,2.88
2023-03-01T16:46:54.502Z,2.88
2023-03-01T16:49:22.116Z,2.91
2023-03-01T16:51:49.862Z,2.92
2023-03-01T16:54:17.650Z,2.93
2023-03-01T16:56:45.267Z,2.85
2023-03-01T16:59:13.084Z,2.81
2023-03-01T17:01:41.612Z,2.72
2023-03-01T17:04:13.017Z,2.68
2023-03-01T17:06:41.052Z,2.51
2023-03-01T17:09:08.726Z,2.44
2023-03-01T17:11:37.569Z,2.27
2023-03-01T17:14:05.277Z,2.27
2023-03-01T17:16:33.160Z,2.13
2023-03-01T17:19:00.865Z,2.18
2023-03-01T17:21:29.950Z,2.23
2023-03-01T17:23:58.933Z,2.28
2023-03-01T17:26:26.682Z,2.30
2023-03-01T17:28:54.354Z,2.20
2023-03-01T17:31:22.914Z,2.24
2023-03-01T17:33:52.332Z,2.19
2023-03-01T17:36:20.204Z,2.17
2023-03-01T17:38:49.740Z,2.15
2023-03-01T17:41:18.741Z,2.15
2023-03-01T17:43:46.467Z,2.07
2023-03-01T17:46:14.912Z,2.06
2023-03-01T17:48:42.605Z,2.10
2023-03-01T17:51:12.568Z,2.19
2023-03-01T17:53:40.263Z,2.27
2023-03-01T17:56:10.163Z,2.33
2023-03-01T17:58:39.325Z,2.36
2023-03-01T18:01:12.602Z,2.37
2023-03-01T18:03:40.963Z,2.35
2023-03-01T18:06:13.626Z,2.22
2023-03-01T18:08:41.231Z,2.28
2023-03-01T18:11:10.339Z,2.28
2023-03-01T18:13:38.277Z,2.31
2023-03-01T18:16:07.347Z,2.27
2023-03-01T18:18:35.172Z,2.29
2023-03-01T18:21:03.664Z,2.14
2023-03-01T18:23:32.449Z,2.08
2023-03-01T18:26:01.747Z,1.92
2023-03-01T18:28:33.537Z,1.90
2023-03-01T18:31:03.635Z,1.94
2023-03-01T18:33:31.435Z,1.98
2023-03-01T18:35:59.250Z,1.98
2023-03-01T18:38:26.930Z,1.90
2023-03-01T18:40:54.608Z,1.87
2023-03-01T18:43:22.302Z,1.94
2023-03-01T18:45:57.709Z,1.93
2023-03-01T18:48:25.718Z,1.97
2023-03-01T18:50:53.405Z,2.02
2023-03-01T18:53:21.053Z,2.09
2023-03-01T18:55:48.812Z,1.97
2023-03-01T18:58:16.433Z,1.85
2023-03-01T19:00:44.026Z,1.77
2023-03-01T19:03:13.006Z,1.71
2023-03-01T19:05:42.277Z,1.73
2023-03-01T19:08:09.991Z,1.65
2023-03-01T19:10:37.614Z,1.74
2023-03-01T19:13:05.238Z,1.69
2023-03-01T19:15:32.904Z,1.69
2023-03-01T19:18:01.920Z,1.78
2023-03-01T19:20:30.958Z,1.63
2023-03-01T19:22:58.601Z,1.70
2023-03-01T19:25:26.279Z,1.69
2023-03-01T19:27:53.898Z,1.70
2023-03-01T19:30:23.285Z,1.58
2023-03-01T19:32:52.208Z,1.65
2023-03-01T19:35:20.114Z,1.64
2023-03-01T19:37:49.231Z,1.49
2023-03-01T19:40:17.057Z,1.57
2023-03-01T19:42:44.641Z,1.46
2023-03-01T19:45:12.902Z,1.58
2023-03-01T19:47:41.261Z,1.65
2023-03-01T19:50:10.091Z,1.68
2023-03-01T19:52:37.713Z,1.70
2023-03-01T19:55:09.979Z,1.73
2023-03-01T19:57:37.852Z,1.76
2023-03-01T20:00:06.561Z,1.79
2023-03-01T20:02:34.238Z,1.80
2023-03-01T20:05:01.969Z,1.76
2023-03-01T20:07:29.616Z,1.73
2023-03-01T20:09:57.226Z,1.76
2023-03-01T20:12:26.256Z,1.74
2023-03-01T20:14:55.460Z,1.79
2023-03-01T20:17:23.211Z,1.85
2023-03-01T20:19:50.953Z,1.85
2023-03-01T20:22:19.213Z,1.90
2023-03-01T20:24:46.975Z,1.87
2023-03-01T20:27:14.642Z,1.89
2023-03-01T20:29:45.816Z,1.93
2023-03-01T20:32:13.997Z,1.94
2023-03-01T20:34:41.626Z,1.94
2023-03-01T20:37:09.863Z,1.89
2023-03-01T20:39:37.557Z,1.90
2023-03-01T20:42:05.246Z,1.88
2023-03-01T20:44:32.857Z,1.87
2023-03-01T20:47:02.072Z,1.84
2023-03-01T20:49:29.755Z,1.89
2023-03-01T20:51:57.391Z,1.90
2023-03-01T20:54:27.796Z,1.87
2023-03-01T20:56:55.605Z,1.88
2023-03-01T20:59:23.861Z,1.83
2023-03-01T21:01:52.145Z,1.83
2023-03-01T21:04:21.882Z,1.89
2023-03-01T21:06:49.512Z,1.91
2023-03-01T21:09:17.334Z,1.89
2023-03-01T21:11:44.978Z,1.90
2023-03-01T21:14:13.159Z,1.89
2023-03-01T21:16:41.189Z,1.86
2023-03-01T21:19:08.926Z,1.85
2023-03-01T21:21:37.899Z,1.74
2023-03-01T21:24:06.489Z,1.74
2023-03-01T21:26:34.721Z,1.67
2023-03-01T21:29:03.471Z,1.67
2023-03-01T21:31:34.016Z,1.66
2023-03-01T21:34:05.050Z,1.66
2023-03-01T21:36:33.727Z,1.67
2023-03-01T21:39:03.101Z,1.55
2023-03-01T21:41:33.087Z,1.49
2023-03-01T21:44:03.063Z,1.49
2023-03-01T21:46:33.835Z,1.52
2023-03-01T21:49:02.578Z,1.47
2023-03-01T21:51:31.318Z,1.51
2023-03-01T21:54:01.168Z,1.52
2023-03-01T21:56:34.435Z,1.37
2023-03-01T21:59:02.678Z,1.27
2023-03-01T22:01:30.421Z,1.30
2023-03-01T22:04:00.159Z,1.30
2023-03-01T22:06:30.720Z,1.23
2023-03-01T22:09:01.025Z,1.25
2023-03-01T22:11:30.417Z,1.29
2023-03-01T22:13:58.055Z,1.37
2023-03-01T22:16:29.183Z,1.37
2023-03-01T22:18:57.865Z,1.29
2023-03-01T22:21:27.067Z,1.37
2023-03-01T22:23:55.884Z,1.38
2023-03-01T22:26:26.817Z,1.38
2023-03-01T22:28:58.396Z,1.38
2023-03-01T22:31:26.993Z,1.43
2023-03-01T22:33:55.476Z,1.48
2023-03-01T22:36:24.191Z,1.41
2023-03-01T22:38:56.184Z,1.46
2023-03-01T22:41:23.803Z,1.50
2023-03-01T22:43:51.455Z,1.56
2023-03-01T22:46:20.872Z,1.49
2023-03-01T22:48:49.153Z,1.55
2023-03-01T22:51:17.254Z,1.58
2023-03-01T22:53:45.074Z,1.55
2023-03-01T22:56:15.123Z,1.58
2023-03-01T22:58:43.164Z,1.60
2023-03-01T23:01:12.611Z,1.62
2023-03-01T23:03:41.987Z,1.64
2023-03-01T23:06:10.001Z,1.48
2023-03-01T23:08:37.752Z,1.46
2023-03-01T23:11:11.795Z,1.44
2023-03-01T23:13:40.077Z,1.46
2023-03-01T23:16:09.358Z,1.47
2023-03-01T23:18:37.344Z,1.47
2023-03-01T23:21:11.487Z,1.44
2023-03-01T23:23:39.201Z,1.47
2023-03-01T23:26:07.844Z,1.33
2023-03-01T23:28:36.741Z,1.32
2023-03-01T23:31:06.520Z,1.25
2023-03-01T23:33:37.809Z,1.16
2023-03-01T23:36:06.876Z,1.14
2023-03-01T23:38:35.938Z,1.02
2023-03-01T23:41:03.626Z,1.04
2023-03-01T23:43:33.023Z,0.97
2023-03-01T23:46:01.121Z,0.99
2023-03-01T23:48:28.823Z,0.95
2023-03-01T23:50:56.633Z,0.95
2023-03-01T23:53:24.222Z,0.91
2023-03-01T23:55:55.333Z,0.83
2023-03-01T23:58:28.541Z,0.75
